ADDS METAR Data INFO
IDs: Format: Raw Decoded Include TAF

Data at: 0922 UTC 13 Dec 2017

KTSP 130915Z AUTO 11004KT 10SM CLR 00/M24 A3023 RMK AO2
KTSP 130855Z AUTO 12006KT 10SM CLR 00/ A3024 RMK AO2
KTSP 130835Z AUTO 12005KT 10SM CLR 00/M25 A3024 RMK AO2
KTSP 130815Z AUTO 09003KT 10SM CLR 00/M24 A3024 RMK AO2
KTSP 130755Z AUTO 00000KT 10SM CLR 01/M25 A3024 RMK AO2
KTSP 130735Z AUTO 13004KT 10SM CLR 02/M25 A3025 RMK AO2
KTSP 130715Z AUTO 00000KT 10SM CLR 02/M25 A3025 RMK AO2
KTSP 130655Z AUTO 13004KT 10SM CLR 00/M25 A3025 RMK AO2
KTSP 130635Z AUTO 00000KT 10SM CLR 01/M25 A3026 RMK AO2
KTSP 130615Z AUTO 00000KT 10SM CLR 02/M27 A3026 RMK AO2
KTSP 130555Z AUTO 00000KT 10SM CLR 03/M27 A3026 RMK AO2
KTSP 130535Z AUTO 12004KT 10SM CLR 03/M26 A3026 RMK AO2
KTSP 130515Z AUTO 13004KT 10SM CLR 04/M27 A3026 RMK AO2
KTSP 130455Z AUTO 01003KT 10SM CLR 04/M27 A3027 RMK AO2
KTSP 130435Z AUTO 00000KT 10SM CLR 03/M27 A3027 RMK AO2
KTSP 130415Z AUTO 00000KT 10SM CLR 04/M27 A3027 RMK AO2
KTSP 130355Z AUTO 00000KT 10SM CLR 04/M27 A3027 RMK AO2
KTSP 130335Z AUTO 12003KT 10SM CLR 04/M27 A3027 RMK AO2
KTSP 130315Z AUTO 00000KT 10SM CLR 05/M27 A3027 RMK AO2
KTSP 130255Z AUTO 00000KT 10SM CLR 06/M27 A3027 RMK AO2
KTSP 130235Z AUTO 00000KT 10SM CLR 07/M27 A3027 RMK AO2
KTSP 130215Z AUTO 00000KT 10SM CLR 07/M27 A3027 RMK AO2
KTSP 130155Z AUTO 00000KT 10SM CLR 08/M27 A3027 RMK AO2
KTSP 130135Z AUTO 11006KT 10SM CLR 10/M27 A3027 RMK AO2
KTSP 130115Z AUTO 10007KT 10SM CLR 12/M27 A3026 RMK AO2
KTSP 130055Z AUTO 12007KT 10SM CLR 13/M27 A3026 RMK AO2
KTSP 130035Z AUTO 10006KT 10SM CLR 15/M27 A3026 RMK AO2
KTSP 130015Z AUTO 12007KT 10SM CLR 17/M25 A3026 RMK AO2
KTSP 122355Z AUTO 14007KT 10SM CLR 18/M26 A3026 RMK AO2
KTSP 122335Z AUTO 14008KT 10SM CLR 19/M27 A3026 RMK AO2
KTSP 122315Z AUTO 12008KT 10SM CLR 20/M27 A3026 RMK AO2
KTSP 122255Z AUTO 11009KT 10SM CLR 20/M28 A3026 RMK AO2
KTSP 122235Z AUTO 12009KT 10SM CLR 20/M27 A3026 RMK AO2
KTSP 122215Z AUTO 13011G14KT 10SM CLR 20/M27 A3026 RMK AO2
KTSP 122155Z AUTO 14011KT 10SM CLR 20/M27 A3027 RMK AO2
KTSP 122135Z AUTO 14008G15KT 100V160 10SM CLR 20/M27 A3027 RMK AO2
KTSP 122115Z AUTO 13011G15KT 8SM CLR 20/M27 A3028 RMK AO2
KTSP 122055Z AUTO 13010G14KT 10SM CLR 20/M27 A3029 RMK AO2
KTSP 122035Z AUTO 10011KT 9SM CLR 20/M27 A3030 RMK AO2
KTSP 122015Z AUTO 13010G17KT 8SM CLR 19/M27 A3031 RMK AO2
KTSP 121955Z AUTO 13011G16KT 9SM CLR 19/M27 A3032 RMK AO2
KTSP 121935Z AUTO 13011G16KT 9SM CLR 19/M27 A3034 RMK AO2
KTSP 121915Z AUTO 14012KT 9SM CLR 18/M27 A3035 RMK AO2
KTSP 121855Z AUTO 13012G16KT 10SM CLR 18/M27 A3037 RMK AO2
KTSP 121835Z AUTO 12011G16KT 9SM CLR 17/M27 A3037 RMK AO2
KTSP 121815Z AUTO 12013G16KT 10SM CLR 17/M27 A3038 RMK AO2
KTSP 121755Z AUTO 12013G17KT 10SM CLR 17/M26 A3039 RMK AO2
KTSP 121735Z AUTO 09009KT 9SM CLR 15/M25 A3039 RMK AO2
KTSP 121715Z AUTO 10010G15KT 9SM CLR 14/M25 A3039 RMK AO2
KTSP 121655Z AUTO 11006KT 10SM CLR 12/M25 A3039 RMK AO2
KTSP 121635Z AUTO 07004KT 10SM CLR 12/M26 A3039 RMK AO2
KTSP 121615Z AUTO 10006KT 10SM CLR 11/M25 A3039 RMK AO2
KTSP 121555Z AUTO 09009KT 8SM CLR 04/M25 A3039 RMK AO2
KTSP 121535Z AUTO 12008KT 8SM CLR 01/M25 A3038 RMK AO2
KTSP 121515Z AUTO 12009KT 10SM CLR M02/M24 A3038 RMK AO2
KTSP 121435Z AUTO 11008KT 10SM CLR 02/M25 A3038 RMK AO2
KTSP 121415Z AUTO 09009KT 10SM CLR 08/M25 A3037 RMK AO2
KTSP 121355Z AUTO 09012KT 10SM CLR 07/M25 A3037 RMK AO2
KTSP 121335Z AUTO 10008KT 10SM CLR 02/M25 A3037 RMK AO2
KTSP 121315Z AUTO 09007KT 10SM CLR 00/M25 A3037 RMK AO2
KTSP 121255Z AUTO 10006KT 10SM CLR 00/M25 A3037 RMK AO2
KTSP 121235Z AUTO 10008KT 10SM CLR 04/M25 A3037 RMK AO2
KTSP 121215Z AUTO 11008KT 10SM CLR 01/M25 A3037 RMK AO2
KTSP 121155Z AUTO 11007KT 10SM CLR M02/ A3038 RMK AO2
KTSP 121135Z AUTO 12008KT 10SM CLR M02/M24 A3038 RMK AO2
KTSP 121115Z AUTO 11005KT 10SM CLR 00/ A3038 RMK AO2
KTSP 121055Z AUTO 10003KT 10SM CLR M02/ A3039 RMK AO2
KTSP 121035Z AUTO 00000KT 10SM CLR M02/M24 A3039 RMK AO2
KTSP 121015Z AUTO 12004KT 10SM CLR M02/M24 A3039 RMK AO2
KTSP 120955Z AUTO 10SM CLR M01/M24 A3040 RMK AO2
KTSP 120935Z AUTO 12006KT 10SM CLR M03/M24 A3040 RMK AO2
KTSP 120915Z AUTO 00000KT 10SM CLR M03/M24 A3040 RMK AO2
KTSP 120855Z AUTO 11005KT 10SM CLR M02/M24 A3040 RMK AO2
KTSP 120835Z AUTO 00000KT 10SM CLR M02/M24 A3040 RMK AO2
KTSP 120815Z AUTO 12003KT 10SM CLR M01/M24 A3040 RMK AO2
KTSP 120755Z AUTO 16005KT 10SM CLR 00/M24 A3040 RMK AO2
KTSP 120735Z AUTO 09003KT 10SM CLR 00/M25 A3040 RMK AO2
KTSP 120715Z AUTO 00000KT 10SM CLR 00/M25 A3041 RMK AO2
KTSP 120655Z AUTO 00000KT 10SM CLR 02/M25 A3040 RMK AO2
KTSP 120635Z AUTO 06003KT 10SM CLR 00/M24 A3040 RMK AO2
KTSP 120615Z AUTO 13003KT 10SM CLR 02/M24 A3040 RMK AO2
KTSP 120555Z AUTO 12006KT 10SM CLR 02/M24 A3040 RMK AO2
KTSP 120535Z AUTO 00000KT 10SM CLR 02/M24 A3040 RMK AO2
KTSP 120515Z AUTO 11007KT 10SM CLR 03/M24 A3040 RMK AO2
KTSP 120455Z AUTO 12009KT 10SM CLR 04/M24 A3039 RMK AO2
KTSP 120435Z AUTO 10008KT 10SM CLR 03/M23 A3039 RMK AO2
KTSP 120415Z AUTO 12007KT 10SM CLR 01/M23 A3039 RMK AO2
KTSP 120355Z AUTO 11009KT 10SM CLR 02/M23 A3039 RMK AO2
KTSP 120335Z AUTO 10005KT 10SM CLR 03/M23 A3039 RMK AO2
KTSP 120315Z AUTO 00000KT 10SM CLR 04/M23 A3039 RMK AO2
KTSP 120255Z AUTO 08004KT 10SM CLR 04/M23 A3038 RMK AO2
KTSP 120235Z AUTO 12007KT 10SM CLR 06/M23 A3038 RMK AO2
KTSP 120215Z AUTO 10006KT 10SM CLR 05/M23 A3037 RMK AO2
KTSP 120155Z AUTO 11007KT 10SM CLR 05/M24 A3037 RMK AO2
KTSP 120135Z AUTO 12006KT 10SM CLR 08/M23 A3037 RMK AO2
KTSP 120115Z AUTO 12008KT 10SM CLR 09/M23 A3037 RMK AO2
KTSP 120055Z AUTO 07005KT 10SM CLR 10/M23 A3037 RMK AO2
KTSP 120035Z AUTO 07005KT 10SM CLR 13/M23 A3036 RMK AO2
KTSP 120015Z AUTO 08004KT 10SM CLR 15/M24 A3036 RMK AO2
KTSP 112355Z AUTO 11006KT 10SM CLR 16/M24 A3036 RMK AO2
KTSP 112335Z AUTO 13006KT 10SM CLR 17/M24 A3035 RMK AO2
KTSP 112315Z AUTO 13007KT 10SM CLR 18/ A3035 RMK AO2
KTSP 112255Z AUTO 14007KT 9SM CLR 18/M24 A3034 RMK AO2
KTSP 112235Z AUTO 14008KT 9SM CLR 18/M24 A3034 RMK AO2
KTSP 112215Z AUTO 14011G16KT 10SM CLR 18/M24 A3034 RMK AO2
KTSP 112155Z AUTO 14009KT 8SM CLR 18/M24 A3034 RMK AO2
KTSP 112135Z AUTO 13013G17KT 10SM CLR 19/M24 A3034 RMK AO2